Bei Facebook empfehlenBei Twitter postenGoogle plusPinterest

Das Wetter im Erzgebirge am 10.04.2015

Wetter und Klima am 10.04.2015 Holzhau im Erzgebirge (630m ü.NN)
Letzte gemessene Temperatur und Uhrzeit der Messung23:45:00 Uhr4.40 °C
Temperatur (Maximum / Höchstwert) und Uhrzeit der Messung15:15:00 Uhr19.30 °C
Temperatur (Minimum / Tiefstwert) und Uhrzeit der Messung07:00:00-0.40 °C
Errechneter Absolutwert der Temperaturschwankungen zwischen Tmin und Tmax des Tages19.70 K
Errechnete Tagesmitteltemperatur7.81979 °C
Gesamt - Niederschlag des Tages (in flüssiger Form)0.00 Liter / m²
Luftdruck (Maximum / Höchstwert) und Zeitpunkt der Messung00:00:00 Uhr1023.10 hPa
Luftdruck (Minimum / Tiefstwert) und Zeitpunkt der Messung23:45:00 Uhr1018.60 hPa
Errechneter Absolutwert der Luftdruckschwankungen des Tages4.50 hPa
Höchste gemessene Windgeschwindigkeit und Uhrzeit der Messung22:30:00 Uhr7.20 km/h
Errechnete Windhäufigkeit in Relation zu den Messwerten des Tages5.20833 %
Niedrigste Windkühle (Windchill) und Zeitpunkt der Messung07:00:00 Uhr-0.40 °C
Taupunkt (Maximum / Höchstwert) und Uhrzeit der Messung10:00:00 Uhr9.30 °C
Taupunkt (Minimum / Tiefstwert) und Uhrzeit der Messung07:00:00-1.70 °C
Anzahl der automatisch eingelesenen Messwerte 96

Detaillierte Wetter- und Klima- Messwerte für den 10.04.2015 in Holzhau im Erzgebirge (630m ü.NN)
ZeitTemperaturLuftdruckRel. LuftfeuchteWindWindrichtungWindchillTaupunktNiederschlag l/m²
23:45:004.40 °C1018.60 hPa88.00 %2.60 °C 
23:30:004.40 °C1018.60 hPa88.00 %2.60 °C 
23:15:004.40 °C1018.70 hPa88.00 %2.60 °C 
23:00:004.60 °C1018.70 hPa88.00 %3.96 km/hSO4.60 °C2.80 °C 
22:45:004.50 °C1018.90 hPa87.00 %6.84 km/hOSO2.90 °C2.50 °C 
22:30:004.90 °C1018.90 hPa88.00 %7.20 km/hSO3.20 °C3.10 °C 
22:15:004.90 °C1019.00 hPa88.00 %3.10 °C 
22:00:004.70 °C1018.90 hPa86.00 %2.60 °C 
21:45:005.10 °C1018.90 hPa86.00 %3.00 °C 
21:30:005.50 °C1018.90 hPa85.00 %3.20 °C 
21:15:006.00 °C1018.90 hPa85.00 %2.16 km/hOSO6.00 °C3.70 °C 
21:00:006.30 °C1018.90 hPa85.00 %4.00 °C 
20:45:006.30 °C1019.10 hPa83.00 %3.60 °C 
20:30:006.80 °C1018.90 hPa82.00 %3.90 °C 
20:15:007.30 °C1019.00 hPa80.00 %4.10 °C 
20:00:008.10 °C1018.80 hPa79.00 %4.70 °C 
19:45:008.80 °C1018.70 hPa77.00 %5.00 °C 
19:30:009.60 °C1018.60 hPa76.00 %5.60 °C 
19:15:0010.20 °C1018.70 hPa74.00 %5.80 °C 
19:00:0011.00 °C1018.70 hPa72.00 %6.20 °C 
18:45:0011.90 °C1018.60 hPa70.00 %6.60 °C 
18:30:0012.50 °C1018.70 hPa68.00 %6.80 °C 
18:15:0013.40 °C1018.90 hPa66.00 %7.20 °C 
18:00:0013.80 °C1018.90 hPa65.00 %7.30 °C 
17:45:0013.90 °C1018.90 hPa64.00 %7.20 °C 
17:30:0013.90 °C1019.00 hPa63.00 %7.00 °C 
17:15:0014.50 °C1019.20 hPa61.00 %7.10 °C 
17:00:0014.90 °C1019.60 hPa59.00 %7.00 °C 
16:45:0015.30 °C1019.60 hPa58.00 %7.10 °C 
16:30:0015.60 °C1019.70 hPa56.00 %6.90 °C 
16:15:0016.30 °C1019.90 hPa53.00 %6.70 °C 
16:00:0017.40 °C1020.00 hPa51.00 %7.20 °C 
15:45:0018.10 °C1020.00 hPa49.00 %7.20 °C 
15:30:0018.70 °C1020.20 hPa48.00 %7.50 °C 
15:15:0019.30 °C1020.20 hPa48.00 %8.00 °C 
15:00:0019.00 °C1020.30 hPa49.00 %8.10 °C 
14:45:0018.80 °C1020.30 hPa48.00 %7.60 °C 
14:30:0018.90 °C1020.50 hPa48.00 %2.16 km/hWSW18.90 °C7.70 °C 
14:15:0018.50 °C1020.50 hPa49.00 %7.60 °C 
14:00:0018.40 °C1020.60 hPa50.00 %7.80 °C 
13:45:0017.90 °C1020.50 hPa52.00 %7.90 °C 
13:30:0017.50 °C1020.50 hPa54.00 %8.10 °C 
13:15:0017.20 °C1020.80 hPa54.00 %7.80 °C 
13:00:0016.80 °C1020.70 hPa54.00 %7.40 °C 
12:45:0016.60 °C1020.70 hPa56.00 %7.80 °C 
12:30:0016.80 °C1020.90 hPa56.00 %8.00 °C 
12:15:0016.90 °C1020.80 hPa58.00 %8.60 °C 
12:00:0016.10 °C1021.00 hPa60.00 %8.30 °C 
11:45:0015.80 °C1021.10 hPa62.00 %8.50 °C 
11:30:0015.60 °C1021.00 hPa65.00 %9.10 °C 
11:15:0014.60 °C1021.10 hPa67.00 %8.50 °C 
11:00:0014.40 °C1021.10 hPa67.00 %8.40 °C 
10:45:0014.00 °C1021.00 hPa69.00 %8.40 °C 
10:30:0013.60 °C1021.20 hPa74.00 %9.10 °C 
10:15:0012.80 °C1021.10 hPa78.00 %9.10 °C 
10:00:0011.60 °C1021.10 hPa86.00 %9.30 °C 
09:45:0010.10 °C1021.10 hPa91.00 %8.70 °C 
09:30:008.50 °C1021.20 hPa92.00 %7.30 °C 
09:15:007.20 °C1021.20 hPa92.00 %6.00 °C 
09:00:005.80 °C1021.20 hPa93.00 %4.80 °C 
08:45:004.60 °C1021.30 hPa93.00 %3.60 °C 
08:30:003.50 °C1021.30 hPa93.00 %2.50 °C 
08:15:002.60 °C1021.30 hPa93.00 %1.60 °C 
08:00:001.90 °C1021.40 hPa92.00 %0.70 °C 
07:45:001.30 °C1021.40 hPa92.00 %0.10 °C 
07:30:000.50 °C1021.40 hPa93.00 %-0.50 °C 
07:15:00-0.20 °C1021.50 hPa92.00 %-1.50 °C 
07:00:00-0.40 °C1021.40 hPa92.00 %-1.70 °C 
06:45:00-0.40 °C1021.60 hPa92.00 %-1.70 °C 
06:30:00-0.30 °C1021.60 hPa92.00 %-1.60 °C 
06:15:00-0.40 °C1021.60 hPa92.00 %-1.70 °C 
06:00:00-0.20 °C1021.60 hPa92.00 %-1.50 °C 
05:45:000.10 °C1021.80 hPa92.00 %-1.00 °C 
05:30:000.30 °C1021.60 hPa92.00 %-0.80 °C 
05:15:000.20 °C1021.80 hPa92.00 %-0.90 °C 
05:00:00-0.10 °C1021.80 hPa92.00 %-1.40 °C 
04:45:00-0.10 °C1021.90 hPa91.00 %-1.50 °C 
04:30:00-0.10 °C1021.90 hPa91.00 %-1.50 °C 
04:15:000.10 °C1021.80 hPa91.00 %-1.20 °C 
04:00:000.30 °C1021.80 hPa91.00 %-1.00 °C 
03:45:000.70 °C1021.80 hPa91.00 %-0.60 °C 
03:30:000.10 °C1021.80 hPa91.00 %-1.20 °C 
03:15:000.10 °C1022.00 hPa91.00 %-1.20 °C 
03:00:000.10 °C1022.00 hPa91.00 %-1.20 °C 
02:45:000.20 °C1022.00 hPa91.00 %-1.10 °C 
02:30:000.20 °C1022.00 hPa91.00 %-1.10 °C 
02:15:000.20 °C1022.00 hPa91.00 %-1.10 °C 
02:00:000.10 °C1022.00 hPa91.00 %-1.20 °C 
01:45:000.20 °C1022.30 hPa90.00 %-1.20 °C 
01:30:000.40 °C1022.40 hPa90.00 %-1.00 °C 
01:15:000.50 °C1022.50 hPa90.00 %-0.90 °C 
01:00:000.70 °C1022.50 hPa90.00 %-0.70 °C 
00:45:000.50 °C1022.60 hPa89.00 %-1.10 °C 
00:30:001.10 °C1022.80 hPa89.00 %-0.50 °C 
00:15:000.80 °C1022.90 hPa89.00 %-0.80 °C 
00:00:000.90 °C1023.10 hPa89.00 %-0.70 °C 

Permanenter Link zu dieser Seite: Wetter im Erzgebirge am 10.04.2015
Performance-Info: Die Erstellung der Seite / Statistik(en) / Tabelle(n) erforderte 5 Datenbankserver-Abfrage(n) und dauerte 99 Millisekunden. (Dieser Messwert ist von der Gesamt-Auslastung des Servers abhängig.)
Erzgebirge - Wetter | Erzgebirge - Wetter (Mobilgeräte) | Komplette Klimadatenbank